TimeEDT,TemperatureF,Dew PointF,Humidity,Sea Level PressureIn,VisibilityMPH,Wind Direction,Wind SpeedMPH,Gust SpeedMPH,PrecipitationIn,Events,Conditions,WindDirDegrees,DateUTC
12:05 AM,60.8,51.8,72,30.14,10.0,ENE,10.4,-,0.00,,Clear,70,2013-06-20 04:05:00
12:20 AM,60.8,51.8,72,30.14,10.0,ENE,9.2,-,0.00,,Clear,70,2013-06-20 04:20:00
12:40 AM,60.8,51.8,72,30.14,10.0,ENE,8.1,-,0.00,,Clear,70,2013-06-20 04:40:00
1:05 AM,60.8,51.8,72,30.14,10.0,East,6.9,-,0.00,,Clear,90,2013-06-20 05:05:00
1:20 AM,60.8,50.0,68,30.14,10.0,East,6.9,-,0.00,,Clear,80,2013-06-20 05:20:00
1:40 AM,60.8,50.0,68,30.14,10.0,East,6.9,-,0.00,,Clear,90,2013-06-20 05:40:00
2:05 AM,60.8,50.0,68,30.15,10.0,East,4.6,-,0.00,,Clear,100,2013-06-20 06:05:00
2:20 AM,60.8,50.0,68,30.15,10.0,East,4.6,-,0.00,,Clear,90,2013-06-20 06:20:00
2:40 AM,59.0,50.0,72,30.15,10.0,Calm,Calm,-,0.00,,Clear,0,2013-06-20 06:40:00
3:05 AM,59.0,48.2,67,30.15,10.0,East,4.6,-,0.00,,Clear,100,2013-06-20 07:05:00
3:20 AM,59.0,48.2,67,30.14,10.0,East,4.6,-,0.00,,Clear,100,2013-06-20 07:20:00
3:40 AM,59.0,48.2,67,30.15,10.0,Calm,Calm,-,0.00,,Clear,0,2013-06-20 07:40:00
4:05 AM,57.2,50.0,77,30.15,10.0,ESE,4.6,-,0.00,,Clear,120,2013-06-20 08:05:00
4:20 AM,59.0,48.2,67,30.15,10.0,ESE,6.9,-,0.00,,Clear,110,2013-06-20 08:20:00
4:40 AM,59.0,48.2,67,30.15,10.0,ESE,5.8,-,0.00,,Clear,120,2013-06-20 08:40:00
5:05 AM,59.0,48.2,67,30.16,10.0,ESE,5.8,-,0.00,,Clear,120,2013-06-20 09:05:00
5:20 AM,59.0,48.2,67,30.16,10.0,ESE,4.6,-,0.00,,Clear,120,2013-06-20 09:20:00
5:40 AM,59.0,48.2,67,30.17,10.0,ESE,3.5,-,0.00,,Clear,120,2013-06-20 09:40:00
6:05 AM,57.2,48.2,72,30.18,10.0,SE,5.8,-,0.00,,Clear,140,2013-06-20 10:05:00
6:20 AM,55.4,48.2,77,30.18,10.0,SE,4.6,-,0.00,,Clear,130,2013-06-20 10:20:00
6:40 AM,59.0,48.2,67,30.18,10.0,SE,5.8,-,0.00,,Clear,130,2013-06-20 10:40:00
7:05 AM,60.8,48.2,63,30.19,10.0,SE,6.9,-,0.00,,Clear,130,2013-06-20 11:05:00
7:20 AM,60.8,50.0,68,30.19,10.0,SE,6.9,-,0.00,,Clear,130,2013-06-20 11:20:00
7:40 AM,62.6,50.0,63,30.19,9.0,SE,6.9,-,0.00,,Clear,130,2013-06-20 11:40:00
8:05 AM,64.4,51.8,64,30.20,10.0,SE,6.9,-,0.00,,Clear,140,2013-06-20 12:05:00
8:20 AM,66.2,51.8,60,30.20,10.0,SSE,8.1,-,0.00,,Clear,150,2013-06-20 12:20:00
8:40 AM,69.8,51.8,53,30.21,10.0,SE,6.9,-,0.00,,Clear,140,2013-06-20 12:40:00
9:00 AM,69.8,51.8,53,30.21,10.0,SSE,8.1,-,0.00,,Clear,150,2013-06-20 13:00:00
9:20 AM,71.6,51.8,50,30.21,10.0,South,8.1,-,0.00,,Clear,170,2013-06-20 13:20:00
9:40 AM,71.6,50.0,46,30.21,10.0,South,6.9,-,0.00,,Clear,170,2013-06-20 13:40:00
10:00 AM,73.4,51.8,47,30.21,10.0,South,6.9,-,0.00,,Clear,180,2013-06-20 14:00:00
10:20 AM,73.4,51.8,47,30.21,10.0,South,6.9,-,0.00,,Clear,180,2013-06-20 14:20:00
10:40 AM,75.2,51.8,44,30.21,10.0,SSE,4.6,-,0.00,,Clear,160,2013-06-20 14:40:00
11:00 AM,75.2,51.8,44,30.21,10.0,South,8.1,-,0.00,,Clear,190,2013-06-20 15:00:00
11:20 AM,75.2,51.8,44,30.21,10.0,Calm,Calm,-,0.00,,Clear,0,2013-06-20 15:20:00
11:40 AM,75.2,51.8,44,30.21,10.0,South,5.8,-,0.00,,Clear,170,2013-06-20 15:40:00
12:05 PM,77.0,51.8,41,30.21,10.0,Calm,Calm,-,0.00,,Partly Cloudy,0,2013-06-20 16:05:00
12:20 PM,77.0,51.8,41,30.21,10.0,SSW,3.5,-,0.00,,Clear,210,2013-06-20 16:20:00
12:40 PM,78.8,51.8,39,30.20,10.0,SSW,4.6,-,0.00,,Clear,210,2013-06-20 16:40:00
1:05 PM,78.8,53.6,42,30.20,10.0,SW,4.6,-,0.00,,Clear,230,2013-06-20 17:05:00
1:20 PM,78.8,51.8,39,30.20,10.0,Calm,Calm,-,0.00,,Clear,0,2013-06-20 17:20:00
1:45 PM,78.8,51.8,39,30.19,10.0,Calm,Calm,-,0.00,,Clear,0,2013-06-20 17:45:00
2:00 PM,80.6,53.6,39,30.19,10.0,SSW,4.6,-,0.00,,Partly Cloudy,210,2013-06-20 18:00:00
2:20 PM,80.6,53.6,39,30.19,10.0,WNW,5.8,-,0.00,,Partly Cloudy,300,2013-06-20 18:20:00
2:45 PM,78.8,53.6,42,30.19,10.0,Calm,Calm,-,0.00,,Scattered Clouds,0,2013-06-20 18:45:00
3:00 PM,80.6,53.6,39,30.19,10.0,NE,3.5,-,0.00,,Mostly Cloudy,40,2013-06-20 19:00:00
3:25 PM,80.6,53.6,39,30.19,10.0,North,4.6,-,0.00,,Mostly Cloudy,10,2013-06-20 19:25:00
3:40 PM,80.6,53.6,39,30.19,10.0,North,4.6,-,0.00,,Scattered Clouds,360,2013-06-20 19:40:00
4:00 PM,80.6,51.8,37,30.19,10.0,NNE,3.5,-,0.00,,Scattered Clouds,20,2013-06-20 20:00:00
4:25 PM,80.6,53.6,39,30.18,10.0,NNE,4.6,-,0.00,,Scattered Clouds,30,2013-06-20 20:25:00
4:40 PM,82.4,53.6,37,30.18,10.0,Calm,Calm,-,0.00,,Mostly Cloudy,0,2013-06-20 20:40:00
5:00 PM,82.4,51.8,35,30.17,10.0,Calm,Calm,-,0.00,,Scattered Clouds,0,2013-06-20 21:00:00
5:20 PM,82.4,53.6,37,30.17,10.0,South,3.5,-,0.00,,Mostly Cloudy,170,2013-06-20 21:20:00
5:40 PM,82.4,53.6,37,30.17,10.0,SSW,3.5,-,0.00,,Scattered Clouds,210,2013-06-20 21:40:00
6:05 PM,82.4,53.6,37,30.17,10.0,ESE,6.9,-,0.00,,Scattered Clouds,120,2013-06-20 22:05:00
6:20 PM,82.4,55.4,39,30.17,10.0,SSE,6.9,-,0.00,,Scattered Clouds,150,2013-06-20 22:20:00
6:40 PM,82.4,53.6,37,30.16,10.0,SSE,4.6,-,0.00,,Scattered Clouds,160,2013-06-20 22:40:00
7:05 PM,80.6,53.6,39,30.16,10.0,SE,4.6,-,0.00,,Scattered Clouds,130,2013-06-20 23:05:00
7:20 PM,80.6,53.6,39,30.16,10.0,SSE,5.8,-,0.00,,Scattered Clouds,150,2013-06-20 23:20:00
7:40 PM,80.6,55.4,42,30.16,10.0,SSE,4.6,-,0.00,,Scattered Clouds,150,2013-06-20 23:40:00
8:00 PM,78.8,55.4,44,30.16,10.0,SSE,3.5,-,0.00,,Partly Cloudy,160,2013-06-21 00:00:00
8:20 PM,77.0,57.2,50,30.16,10.0,SSE,3.5,-,0.00,,Scattered Clouds,160,2013-06-21 00:20:00
8:40 PM,75.2,57.2,53,30.15,10.0,SE,4.6,-,0.00,,Scattered Clouds,140,2013-06-21 00:40:00
9:00 PM,73.4,57.2,57,30.16,10.0,SSE,3.5,-,0.00,,Scattered Clouds,150,2013-06-21 01:00:00
9:20 PM,71.6,55.4,57,30.16,10.0,SE,3.5,-,0.00,,Scattered Clouds,140,2013-06-21 01:20:00
9:45 PM,71.6,55.4,57,30.16,10.0,SE,4.6,-,0.00,,Partly Cloudy,130,2013-06-21 01:45:00
10:00 PM,71.6,55.4,57,30.17,10.0,SE,3.5,-,0.00,,Partly Cloudy,130,2013-06-21 02:00:00
10:20 PM,69.8,57.2,64,30.18,10.0,SE,4.6,-,0.00,,Partly Cloudy,130,2013-06-21 02:20:00
10:40 PM,68.0,57.2,68,30.18,10.0,SE,4.6,-,0.00,,Clear,130,2013-06-21 02:40:00
11:00 PM,69.8,57.2,64,30.19,10.0,SE,4.6,-,0.00,,Clear,140,2013-06-21 03:00:00
11:20 PM,68.0,57.2,68,30.20,10.0,SE,6.9,-,0.00,,Partly Cloudy,140,2013-06-21 03:20:00
11:40 PM,68.0,57.2,68,30.19,10.0,SE,5.8,-,0.00,,Partly Cloudy,130,2013-06-21 03:40:00